sensor_id;sensor_type;location;lat;lon;timestamp;pressure;altitude;pressure_sealevel;temperature;humidity
38530;BME280;24301;54.332;48.386;2022-10-16T00:01:15;100207.44;;;0.69;72.81
38530;BME280;24301;54.332;48.386;2022-10-16T00:03:43;100216.94;;;0.69;73.18
38530;BME280;24301;54.332;48.386;2022-10-16T00:06:10;100217.75;;;0.68;73.56
38530;BME280;24301;54.332;48.386;2022-10-16T00:08:37;100212.56;;;0.68;72.99
38530;BME280;24301;54.332;48.386;2022-10-16T00:13:34;100215.97;;;0.67;73.73
38530;BME280;24301;54.332;48.386;2022-10-16T00:16:01;100216.72;;;0.64;73.33
38530;BME280;24301;54.332;48.386;2022-10-16T00:18:28;100221.16;;;0.67;73.03
38530;BME280;24301;54.332;48.386;2022-10-16T00:20:55;100218.44;;;0.64;73.52
38530;BME280;24301;54.332;48.386;2022-10-16T00:23:40;100227.97;;;0.65;73.80
38530;BME280;24301;54.332;48.386;2022-10-16T00:26:11;100229.44;;;0.60;73.64
38530;BME280;24301;54.332;48.386;2022-10-16T00:28:38;100233.53;;;0.54;73.06
38530;BME280;24301;54.332;48.386;2022-10-16T00:31:09;100229.97;;;0.52;73.71
38530;BME280;24301;54.332;48.386;2022-10-16T00:33:36;100234.28;;;0.52;73.24
38530;BME280;24301;54.332;48.386;2022-10-16T00:36:04;100236.09;;;0.54;73.95
38530;BME280;24301;54.332;48.386;2022-10-16T00:38:30;100228.22;;;0.51;73.35
38530;BME280;24301;54.332;48.386;2022-10-16T00:40:56;100233.25;;;0.48;73.57
38530;BME280;24301;54.332;48.386;2022-10-16T00:43:43;100238.34;;;0.47;73.74
38530;BME280;24301;54.332;48.386;2022-10-16T00:46:37;100236.66;;;0.47;74.42
38530;BME280;24301;54.332;48.386;2022-10-16T00:49:05;100247.06;;;0.49;74.26
38530;BME280;24301;54.332;48.386;2022-10-16T00:51:34;100239.25;;;0.47;73.90
38530;BME280;24301;54.332;48.386;2022-10-16T00:54:03;100247.06;;;0.49;73.33
38530;BME280;24301;54.332;48.386;2022-10-16T00:56:29;100245.91;;;0.42;73.48
38530;BME280;24301;54.332;48.386;2022-10-16T00:58:55;100249.00;;;0.35;74.12
38530;BME280;24301;54.332;48.386;2022-10-16T01:01:21;100253.22;;;0.33;74.06
38530;BME280;24301;54.332;48.386;2022-10-16T01:03:47;100252.41;;;0.34;73.97
38530;BME280;24301;54.332;48.386;2022-10-16T01:06:21;100253.38;;;0.36;74.04
38530;BME280;24301;54.332;48.386;2022-10-16T01:11:49;100254.41;;;0.39;73.85
38530;BME280;24301;54.332;48.386;2022-10-16T01:14:34;100244.19;;;0.42;74.47
38530;BME280;24301;54.332;48.386;2022-10-16T01:17:15;100249.47;;;0.44;73.98
38530;BME280;24301;54.332;48.386;2022-10-16T01:20:10;100251.09;;;0.42;74.04
38530;BME280;24301;54.332;48.386;2022-10-16T01:23:10;100254.31;;;0.38;74.36
38530;BME280;24301;54.332;48.386;2022-10-16T01:31:20;100261.13;;;0.36;73.99
38530;BME280;24301;54.332;48.386;2022-10-16T01:33:54;100259.97;;;0.29;73.78
38530;BME280;24301;54.332;48.386;2022-10-16T01:36:23;100274.00;;;0.34;74.46
38530;BME280;24301;54.332;48.386;2022-10-16T01:38:52;100265.19;;;0.31;74.07
38530;BME280;24301;54.332;48.386;2022-10-16T01:41:26;100271.34;;;0.33;74.29
38530;BME280;24301;54.332;48.386;2022-10-16T01:44:17;100268.75;;;0.33;74.27
38530;BME280;24301;54.332;48.386;2022-10-16T01:46:47;100269.69;;;0.35;74.03
38530;BME280;24301;54.332;48.386;2022-10-16T01:49:14;100262.91;;;0.37;74.08
38530;BME280;24301;54.332;48.386;2022-10-16T01:51:45;100278.28;;;0.34;73.88
38530;BME280;24301;54.332;48.386;2022-10-16T01:54:14;100274.75;;;0.32;74.59
38530;BME280;24301;54.332;48.386;2022-10-16T01:56:42;100281.69;;;0.33;74.39
38530;BME280;24301;54.332;48.386;2022-10-16T01:59:19;100282.59;;;0.33;74.86
38530;BME280;24301;54.332;48.386;2022-10-16T02:01:52;100283.16;;;0.27;74.81
38530;BME280;24301;54.332;48.386;2022-10-16T02:04:21;100285.91;;;0.31;74.73
38530;BME280;24301;54.332;48.386;2022-10-16T02:06:49;100286.81;;;0.31;74.00
38530;BME280;24301;54.332;48.386;2022-10-16T02:09:15;100285.75;;;0.27;74.22
38530;BME280;24301;54.332;48.386;2022-10-16T02:11:43;100288.19;;;0.24;74.49
38530;BME280;24301;54.332;48.386;2022-10-16T02:14:09;100288.06;;;0.21;74.59
38530;BME280;24301;54.332;48.386;2022-10-16T02:16:43;100295.88;;;0.23;74.95
38530;BME280;24301;54.332;48.386;2022-10-16T02:19:13;100295.81;;;0.21;74.91
38530;BME280;24301;54.332;48.386;2022-10-16T02:21:54;100294.91;;;0.21;75.24
38530;BME280;24301;54.332;48.386;2022-10-16T02:24:53;100296.78;;;0.23;74.65
38530;BME280;24301;54.332;48.386;2022-10-16T02:27:48;100298.69;;;0.27;75.23
38530;BME280;24301;54.332;48.386;2022-10-16T02:30:21;100298.84;;;0.31;74.97
38530;BME280;24301;54.332;48.386;2022-10-16T02:32:52;100303.13;;;0.30;74.50
38530;BME280;24301;54.332;48.386;2022-10-16T02:35:21;100301.50;;;0.32;74.50
38530;BME280;24301;54.332;48.386;2022-10-16T02:37:48;100303.47;;;0.38;74.49
38530;BME280;24301;54.332;48.386;2022-10-16T02:40:15;100297.66;;;0.42;74.97
38530;BME280;24301;54.332;48.386;2022-10-16T02:42:42;100299.81;;;0.51;74.88
38530;BME280;24301;54.332;48.386;2022-10-16T02:45:10;100294.81;;;0.55;74.54
38530;BME280;24301;54.332;48.386;2022-10-16T02:47:37;100305.25;;;0.57;74.26
38530;BME280;24301;54.332;48.386;2022-10-16T02:50:03;100294.97;;;0.59;74.79
38530;BME280;24301;54.332;48.386;2022-10-16T02:52:29;100306.06;;;0.56;73.90
38530;BME280;24301;54.332;48.386;2022-10-16T02:54:55;100300.69;;;0.51;74.33
38530;BME280;24301;54.332;48.386;2022-10-16T02:57:22;100298.81;;;0.49;74.70
38530;BME280;24301;54.332;48.386;2022-10-16T02:59:48;100300.44;;;0.47;74.44
38530;BME280;24301;54.332;48.386;2022-10-16T03:02:14;100302.97;;;0.45;74.85
38530;BME280;24301;54.332;48.386;2022-10-16T03:04:40;100309.94;;;0.46;74.28
38530;BME280;24301;54.332;48.386;2022-10-16T03:07:06;100320.41;;;0.49;74.88
38530;BME280;24301;54.332;48.386;2022-10-16T03:09:33;100318.66;;;0.48;74.81
38530;BME280;24301;54.332;48.386;2022-10-16T03:11:59;100321.16;;;0.47;74.17
38530;BME280;24301;54.332;48.386;2022-10-16T03:14:25;100306.25;;;0.41;74.40
38530;BME280;24301;54.332;48.386;2022-10-16T03:16:51;100310.81;;;0.47;74.01
38530;BME280;24301;54.332;48.386;2022-10-16T03:19:17;100308.13;;;0.63;74.22
38530;BME280;24301;54.332;48.386;2022-10-16T03:21:44;100313.75;;;0.92;74.61
38530;BME280;24301;54.332;48.386;2022-10-16T03:24:10;100304.97;;;1.28;73.97
38530;BME280;24301;54.332;48.386;2022-10-16T03:26:36;100308.63;;;1.53;73.47
38530;BME280;24301;54.332;48.386;2022-10-16T03:29:02;100310.38;;;1.52;72.45
38530;BME280;24301;54.332;48.386;2022-10-16T03:31:29;100310.44;;;1.34;71.59
38530;BME280;24301;54.332;48.386;2022-10-16T03:33:56;100315.69;;;1.16;72.14
38530;BME280;24301;54.332;48.386;2022-10-16T03:36:22;100321.34;;;1.07;72.16
38530;BME280;24301;54.332;48.386;2022-10-16T03:38:48;100323.66;;;1.01;72.51
38530;BME280;24301;54.332;48.386;2022-10-16T03:41:14;100322.97;;;1.05;72.25
38530;BME280;24301;54.332;48.386;2022-10-16T03:43:40;100319.84;;;1.12;72.34
38530;BME280;24301;54.332;48.386;2022-10-16T03:46:06;100325.72;;;1.28;72.18
38530;BME280;24301;54.332;48.386;2022-10-16T03:48:32;100331.28;;;1.37;71.92
38530;BME280;24301;54.332;48.386;2022-10-16T03:50:58;100330.94;;;1.49;71.87
38530;BME280;24301;54.332;48.386;2022-10-16T03:53:24;100336.31;;;1.74;71.61
38530;BME280;24301;54.332;48.386;2022-10-16T03:55:50;100338.59;;;2.29;71.55
38530;BME280;24301;54.332;48.386;2022-10-16T03:58:19;100340.41;;;3.22;70.13
38530;BME280;24301;54.332;48.386;2022-10-16T04:00:46;100332.94;;;4.33;68.56
38530;BME280;24301;54.332;48.386;2022-10-16T04:03:13;100337.25;;;5.84;65.77
38530;BME280;24301;54.332;48.386;2022-10-16T04:05:38;100323.44;;;6.98;62.72
38530;BME280;24301;54.332;48.386;2022-10-16T04:08:04;100331.72;;;7.65;59.80
38530;BME280;24301;54.332;48.386;2022-10-16T04:10:30;100331.66;;;8.11;57.74
38530;BME280;24301;54.332;48.386;2022-10-16T04:12:56;100334.59;;;8.29;56.14
38530;BME280;24301;54.332;48.386;2022-10-16T04:15:25;100335.19;;;8.13;54.86
38530;BME280;24301;54.332;48.386;2022-10-16T04:17:51;100343.50;;;8.39;55.12
38530;BME280;24301;54.332;48.386;2022-10-16T04:20:18;100339.94;;;8.96;53.66
38530;BME280;24301;54.332;48.386;2022-10-16T04:22:44;100337.25;;;9.62;52.42
38530;BME280;24301;54.332;48.386;2022-10-16T04:25:10;100334.78;;;9.74;50.95
38530;BME280;24301;54.332;48.386;2022-10-16T04:27:38;100334.00;;;9.85;50.15
38530;BME280;24301;54.332;48.386;2022-10-16T04:30:05;100329.59;;;9.82;49.34
38530;BME280;24301;54.332;48.386;2022-10-16T04:32:31;100340.16;;;9.85;49.43
38530;BME280;24301;54.332;48.386;2022-10-16T04:34:57;100336.75;;;9.99;48.88
38530;BME280;24301;54.332;48.386;2022-10-16T04:37:24;100347.66;;;10.44;48.05
38530;BME280;24301;54.332;48.386;2022-10-16T04:39:51;100344.84;;;10.20;47.71
38530;BME280;24301;54.332;48.386;2022-10-16T04:42:17;100346.66;;;9.41;48.12
38530;BME280;24301;54.332;48.386;2022-10-16T04:44:43;100350.03;;;8.66;48.90
38530;BME280;24301;54.332;48.386;2022-10-16T04:47:08;100353.19;;;7.93;50.21
38530;BME280;24301;54.332;48.386;2022-10-16T04:49:34;100344.34;;;7.41;50.41
38530;BME280;24301;54.332;48.386;2022-10-16T04:52:00;100355.72;;;7.00;51.27
38530;BME280;24301;54.332;48.386;2022-10-16T04:54:26;100364.69;;;6.72;52.05
38530;BME280;24301;54.332;48.386;2022-10-16T04:56:52;100368.59;;;6.53;52.52
38530;BME280;24301;54.332;48.386;2022-10-16T04:59:19;100360.19;;;6.29;52.55
38530;BME280;24301;54.332;48.386;2022-10-16T05:01:45;100360.50;;;6.07;53.00
38530;BME280;24301;54.332;48.386;2022-10-16T05:04:16;100368.38;;;5.76;53.75
38530;BME280;24301;54.332;48.386;2022-10-16T05:06:42;100372.19;;;5.57;53.87
38530;BME280;24301;54.332;48.386;2022-10-16T05:09:08;100377.09;;;5.44;55.05
38530;BME280;24301;54.332;48.386;2022-10-16T05:11:35;100375.56;;;5.53;55.27
38530;BME280;24301;54.332;48.386;2022-10-16T05:14:01;100383.63;;;5.60;54.71
38530;BME280;24301;54.332;48.386;2022-10-16T05:16:27;100375.19;;;5.71;54.65
38530;BME280;24301;54.332;48.386;2022-10-16T05:18:53;100382.47;;;5.83;54.57
38530;BME280;24301;54.332;48.386;2022-10-16T05:21:20;100378.94;;;6.13;54.24
38530;BME280;24301;54.332;48.386;2022-10-16T05:23:46;100383.59;;;6.61;53.87
38530;BME280;24301;54.332;48.386;2022-10-16T05:26:12;100376.75;;;7.48;52.54
38530;BME280;24301;54.332;48.386;2022-10-16T05:28:38;100378.47;;;8.43;50.90
38530;BME280;24301;54.332;48.386;2022-10-16T05:31:08;100375.22;;;9.95;48.66
38530;BME280;24301;54.332;48.386;2022-10-16T05:33:34;100370.25;;;11.62;45.96
38530;BME280;24301;54.332;48.386;2022-10-16T05:36:05;100351.00;;;12.68;43.85
38530;BME280;24301;54.332;48.386;2022-10-16T05:38:31;100367.44;;;13.64;42.14
38530;BME280;24301;54.332;48.386;2022-10-16T05:40:57;100368.41;;;14.70;40.66
38530;BME280;24301;54.332;48.386;2022-10-16T05:43:23;100366.13;;;15.93;39.03
38530;BME280;24301;54.332;48.386;2022-10-16T05:45:59;100365.69;;;17.22;35.79
38530;BME280;24301;54.332;48.386;2022-10-16T05:48:25;100373.50;;;17.72;35.26
38530;BME280;24301;54.332;48.386;2022-10-16T05:51:03;100364.72;;;18.46;33.44
38530;BME280;24301;54.332;48.386;2022-10-16T05:53:31;100376.88;;;19.24;33.03
38530;BME280;24301;54.332;48.386;2022-10-16T05:55:58;100377.91;;;19.78;31.88
38530;BME280;24301;54.332;48.386;2022-10-16T05:58:27;100374.81;;;20.49;30.65
38530;BME280;24301;54.332;48.386;2022-10-16T06:00:59;100369.38;;;21.29;28.77
38530;BME280;24301;54.332;48.386;2022-10-16T06:03:26;100376.75;;;22.16;28.56
38530;BME280;24301;54.332;48.386;2022-10-16T06:05:52;100390.72;;;22.88;27.46
38530;BME280;24301;54.332;48.386;2022-10-16T06:08:19;100379.88;;;23.51;26.32
38530;BME280;24301;54.332;48.386;2022-10-16T06:10:46;100386.50;;;24.02;25.67
38530;BME280;24301;54.332;48.386;2022-10-16T06:13:12;100390.41;;;24.31;24.82
38530;BME280;24301;54.332;48.386;2022-10-16T06:15:40;100393.75;;;24.36;24.26
38530;BME280;24301;54.332;48.386;2022-10-16T06:18:10;100395.03;;;24.47;23.52
38530;BME280;24301;54.332;48.386;2022-10-16T06:20:36;100395.63;;;24.34;23.67
38530;BME280;24301;54.332;48.386;2022-10-16T06:23:03;100409.19;;;24.68;23.67
38530;BME280;24301;54.332;48.386;2022-10-16T06:25:32;100423.66;;;24.83;22.54
38530;BME280;24301;54.332;48.386;2022-10-16T06:27:59;100427.88;;;24.89;22.88
38530;BME280;24301;54.332;48.386;2022-10-16T06:30:25;100426.34;;;25.18;22.40
38530;BME280;24301;54.332;48.386;2022-10-16T06:32:51;100434.47;;;25.52;22.09
38530;BME280;24301;54.332;48.386;2022-10-16T06:35:17;100439.66;;;26.05;21.76
38530;BME280;24301;54.332;48.386;2022-10-16T06:37:42;100441.94;;;26.59;21.52
38530;BME280;24301;54.332;48.386;2022-10-16T06:40:08;100444.94;;;26.85;20.60
38530;BME280;24301;54.332;48.386;2022-10-16T06:42:34;100443.75;;;26.75;20.67
38530;BME280;24301;54.332;48.386;2022-10-16T06:45:00;100453.38;;;26.79;21.05
38530;BME280;24301;54.332;48.386;2022-10-16T06:47:27;100455.09;;;25.85;21.01
38530;BME280;24301;54.332;48.386;2022-10-16T06:49:53;100446.13;;;24.82;21.96
38530;BME280;24301;54.332;48.386;2022-10-16T06:52:19;100440.34;;;23.59;22.75
38530;BME280;24301;54.332;48.386;2022-10-16T06:54:45;100439.25;;;22.15;24.20
38530;BME280;24301;54.332;48.386;2022-10-16T06:57:11;100436.13;;;21.79;25.06
38530;BME280;24301;54.332;48.386;2022-10-16T06:59:37;100448.78;;;21.76;25.23
38530;BME280;24301;54.332;48.386;2022-10-16T07:02:06;100455.94;;;22.88;24.20
38530;BME280;24301;54.332;48.386;2022-10-16T07:04:32;100456.19;;;24.22;23.16
38530;BME280;24301;54.332;48.386;2022-10-16T07:07:00;100446.97;;;24.28;22.49
38530;BME280;24301;54.332;48.386;2022-10-16T07:09:26;100448.03;;;24.98;22.30
38530;BME280;24301;54.332;48.386;2022-10-16T07:11:54;100445.69;;;26.08;21.50
38530;BME280;24301;54.332;48.386;2022-10-16T07:14:23;100459.53;;;26.81;20.74
38530;BME280;24301;54.332;48.386;2022-10-16T07:16:49;100455.41;;;27.06;20.26
38530;BME280;24301;54.332;48.386;2022-10-16T07:19:15;100454.03;;;27.73;20.23
38530;BME280;24301;54.332;48.386;2022-10-16T07:21:43;100462.19;;;28.00;19.61
38530;BME280;24301;54.332;48.386;2022-10-16T07:24:15;100463.03;;;28.57;18.73
38530;BME280;24301;54.332;48.386;2022-10-16T07:26:42;100465.59;;;28.86;18.88
38530;BME280;24301;54.332;48.386;2022-10-16T07:29:19;100455.47;;;29.03;18.61
38530;BME280;24301;54.332;48.386;2022-10-16T07:31:46;100466.00;;;29.20;18.66
38530;BME280;24301;54.332;48.386;2022-10-16T07:34:14;100454.28;;;29.07;18.55
38530;BME280;24301;54.332;48.386;2022-10-16T07:36:40;100462.69;;;28.89;18.33
38530;BME280;24301;54.332;48.386;2022-10-16T07:39:07;100454.34;;;28.52;18.54
38530;BME280;24301;54.332;48.386;2022-10-16T07:41:34;100456.81;;;28.42;18.87
38530;BME280;24301;54.332;48.386;2022-10-16T07:44:03;100458.84;;;28.38;18.61
38530;BME280;24301;54.332;48.386;2022-10-16T07:46:30;100463.94;;;28.43;18.32
38530;BME280;24301;54.332;48.386;2022-10-16T07:48:56;100470.66;;;28.23;18.98
38530;BME280;24301;54.332;48.386;2022-10-16T07:51:24;100467.59;;;28.00;18.52
38530;BME280;24301;54.332;48.386;2022-10-16T07:53:50;100467.28;;;27.18;19.35
38530;BME280;24301;54.332;48.386;2022-10-16T07:56:18;100461.75;;;25.27;20.67
38530;BME280;24301;54.332;48.386;2022-10-16T07:58:44;100449.78;;;22.42;23.05
38530;BME280;24301;54.332;48.386;2022-10-16T08:01:13;100461.34;;;19.84;26.32
38530;BME280;24301;54.332;48.386;2022-10-16T08:03:47;100452.66;;;18.02;28.61
38530;BME280;24301;54.332;48.386;2022-10-16T08:06:14;100458.47;;;16.81;30.25
38530;BME280;24301;54.332;48.386;2022-10-16T08:08:40;100449.31;;;15.82;31.83
38530;BME280;24301;54.332;48.386;2022-10-16T08:11:06;100450.19;;;15.04;32.95
38530;BME280;24301;54.332;48.386;2022-10-16T08:13:33;100435.78;;;14.27;33.65
38530;BME280;24301;54.332;48.386;2022-10-16T08:15:59;100450.16;;;13.74;34.92
38530;BME280;24301;54.332;48.386;2022-10-16T08:18:26;100447.66;;;13.29;35.37
38530;BME280;24301;54.332;48.386;2022-10-16T08:20:59;100446.81;;;13.01;36.60
38530;BME280;24301;54.332;48.386;2022-10-16T08:23:26;100445.94;;;12.96;36.85
38530;BME280;24301;54.332;48.386;2022-10-16T08:25:54;100445.09;;;12.89;37.41
38530;BME280;24301;54.332;48.386;2022-10-16T08:28:23;100443.34;;;12.64;38.05
38530;BME280;24301;54.332;48.386;2022-10-16T08:30:55;100448.59;;;12.27;38.54
38530;BME280;24301;54.332;48.386;2022-10-16T08:33:22;100433.53;;;11.97;39.30
38530;BME280;24301;54.332;48.386;2022-10-16T08:35:52;100443.16;;;11.84;40.00
38530;BME280;24301;54.332;48.386;2022-10-16T08:38:19;100439.56;;;11.63;40.08
38530;BME280;24301;54.332;48.386;2022-10-16T08:40:45;100443.97;;;11.61;40.27
38530;BME280;24301;54.332;48.386;2022-10-16T08:43:28;100443.09;;;11.63;41.10
38530;BME280;24301;54.332;48.386;2022-10-16T08:51:08;100439.44;;;11.35;41.54
38530;BME280;24301;54.332;48.386;2022-10-16T08:53:44;100434.16;;;11.29;42.15
38530;BME280;24301;54.332;48.386;2022-10-16T08:56:11;100438.56;;;11.30;42.10
38530;BME280;24301;54.332;48.386;2022-10-16T08:58:37;100433.25;;;11.25;42.04
38530;BME280;24301;54.332;48.386;2022-10-16T09:01:05;100434.09;;;11.19;42.35
38530;BME280;24301;54.332;48.386;2022-10-16T09:03:54;100433.19;;;11.13;43.13
38530;BME280;24301;54.332;48.386;2022-10-16T09:06:43;100444.53;;;11.04;43.21
38530;BME280;24301;54.332;48.386;2022-10-16T09:16:48;100439.09;;;10.79;44.32
38530;BME280;24301;54.332;48.386;2022-10-16T09:19:45;100442.63;;;10.81;44.28
38530;BME280;24301;54.332;48.386;2022-10-16T09:22:14;100437.28;;;10.73;44.41
38530;BME280;24301;54.332;48.386;2022-10-16T09:24:40;100432.94;;;10.77;44.62
38530;BME280;24301;54.332;48.386;2022-10-16T09:27:14;100432.94;;;10.78;44.66
38530;BME280;24301;54.332;48.386;2022-10-16T09:29:40;100426.81;;;10.78;45.32
38530;BME280;24301;54.332;48.386;2022-10-16T09:32:19;100435.59;;;10.80;44.81
38530;BME280;24301;54.332;48.386;2022-10-16T09:34:54;100444.38;;;10.82;45.23
38530;BME280;24301;54.332;48.386;2022-10-16T09:37:23;100441.78;;;10.87;44.84
38530;BME280;24301;54.332;48.386;2022-10-16T09:39:52;100433.03;;;10.91;44.41
38530;BME280;24301;54.332;48.386;2022-10-16T09:42:19;100430.38;;;10.86;44.40
38530;BME280;24301;54.332;48.386;2022-10-16T09:44:52;100425.91;;;10.74;44.19
38530;BME280;24301;54.332;48.386;2022-10-16T09:47:27;100437.34;;;10.81;44.07
38530;BME280;24301;54.332;48.386;2022-10-16T09:49:58;100439.13;;;10.84;44.45
38530;BME280;24301;54.332;48.386;2022-10-16T09:52:29;100441.81;;;10.91;44.64
38530;BME280;24301;54.332;48.386;2022-10-16T09:55:02;100434.00;;;11.01;44.79
38530;BME280;24301;54.332;48.386;2022-10-16T09:57:28;100435.78;;;11.08;44.51
38530;BME280;24301;54.332;48.386;2022-10-16T09:59:57;100437.53;;;11.09;44.26
38530;BME280;24301;54.332;48.386;2022-10-16T10:02:30;100437.53;;;11.06;44.57
38530;BME280;24301;54.332;48.386;2022-10-16T10:04:57;100440.22;;;11.15;44.09
38530;BME280;24301;54.332;48.386;2022-10-16T10:07:29;100444.59;;;11.13;44.15
38530;BME280;24301;54.332;48.386;2022-10-16T10:09:59;100441.97;;;11.15;43.90
38530;BME280;24301;54.332;48.386;2022-10-16T10:12:30;100437.53;;;11.06;44.05
38530;BME280;24301;54.332;48.386;2022-10-16T10:15:10;100441.06;;;11.08;43.84
38530;BME280;24301;54.332;48.386;2022-10-16T10:17:52;100438.47;;;11.16;44.16
38530;BME280;24301;54.332;48.386;2022-10-16T10:20:28;100431.44;;;11.16;43.91
38530;BME280;24301;54.332;48.386;2022-10-16T10:22:56;100437.53;;;11.09;44.49
38530;BME280;24301;54.332;48.386;2022-10-16T10:31:01;100434.22;;;11.44;43.68
38530;BME280;24301;54.332;48.386;2022-10-16T10:41:45;100431.72;;;11.77;43.60
38530;BME280;24301;54.332;48.386;2022-10-16T10:56:45;100432.72;;;12.07;43.16
38530;BME280;24301;54.332;48.386;2022-10-16T11:01:15;100431.84;;;12.02;43.31
38530;BME280;24301;54.332;48.386;2022-10-16T11:06:20;100428.34;;;12.04;43.12
38530;BME280;24301;54.332;48.386;2022-10-16T11:09:06;100438.88;;;12.04;42.89
38530;BME280;24301;54.332;48.386;2022-10-16T11:11:40;100430.00;;;11.90;42.96
38530;BME280;24301;54.332;48.386;2022-10-16T11:14:41;100433.47;;;11.78;43.49
38530;BME280;24301;54.332;48.386;2022-10-16T11:17:18;100445.69;;;11.56;43.41
38530;BME280;24301;54.332;48.386;2022-10-16T11:25:29;100448.25;;;11.43;44.67
38530;BME280;24301;54.332;48.386;2022-10-16T11:28:03;100449.13;;;11.41;44.96
38530;BME280;24301;54.332;48.386;2022-10-16T11:30:56;100453.53;;;11.42;44.69
38530;BME280;24301;54.332;48.386;2022-10-16T11:33:39;100444.69;;;11.32;44.77
38530;BME280;24301;54.332;48.386;2022-10-16T11:36:36;100454.34;;;11.33;44.47
38530;BME280;24301;54.332;48.386;2022-10-16T11:39:18;100445.63;;;11.39;44.79
38530;BME280;24301;54.332;48.386;2022-10-16T11:47:45;100444.47;;;10.93;45.11
38530;BME280;24301;54.332;48.386;2022-10-16T11:52:56;100453.13;;;10.78;45.60
38530;BME280;24301;54.332;48.386;2022-10-16T11:56:01;100439.84;;;10.62;45.61
38530;BME280;24301;54.332;48.386;2022-10-16T12:01:40;100452.72;;;10.36;46.25
38530;BME280;24301;54.332;48.386;2022-10-16T12:04:48;100453.41;;;10.18;46.34
38530;BME280;24301;54.332;48.386;2022-10-16T12:07:21;100446.28;;;10.04;46.86
38530;BME280;24301;54.332;48.386;2022-10-16T12:09:53;100447.94;;;9.98;47.02
38530;BME280;24301;54.332;48.386;2022-10-16T12:15:21;100446.09;;;9.87;47.45
38530;BME280;24301;54.332;48.386;2022-10-16T12:17:50;100456.59;;;9.87;47.80
38530;BME280;24301;54.332;48.386;2022-10-16T12:22:50;100448.69;;;9.86;47.96
38530;BME280;24301;54.332;48.386;2022-10-16T12:25:39;100453.06;;;9.87;48.74
38530;BME280;24301;54.332;48.386;2022-10-16T12:30:41;100452.09;;;9.80;48.53
38530;BME280;24301;54.332;48.386;2022-10-16T12:33:24;100450.38;;;9.82;48.90
38530;BME280;24301;54.332;48.386;2022-10-16T12:35:51;100446.88;;;9.82;48.93
38530;BME280;24301;54.332;48.386;2022-10-16T12:38:29;100448.66;;;9.83;48.87
38530;BME280;24301;54.332;48.386;2022-10-16T12:41:23;100448.59;;;9.76;49.09
38530;BME280;24301;54.332;48.386;2022-10-16T12:43:49;100448.56;;;9.75;48.92
38530;BME280;24301;54.332;48.386;2022-10-16T12:48:43;100447.69;;;9.76;49.10
38530;BME280;24301;54.332;48.386;2022-10-16T12:54:15;100442.66;;;9.95;49.12
38530;BME280;24301;54.332;48.386;2022-10-16T13:30:24;100451.59;;;9.38;49.46
38530;BME280;24301;54.332;48.386;2022-10-16T13:33:04;100449.78;;;9.34;49.47
38530;BME280;24301;54.332;48.386;2022-10-16T13:35:32;100449.72;;;9.28;49.77
38530;BME280;24301;54.332;48.386;2022-10-16T13:40:35;100447.84;;;9.20;49.78
38530;BME280;24301;54.332;48.386;2022-10-16T13:43:01;100448.69;;;9.18;50.00
38530;BME280;24301;54.332;48.386;2022-10-16T13:45:27;100449.47;;;9.12;50.18
38530;BME280;24301;54.332;48.386;2022-10-16T13:48:04;100453.78;;;9.09;50.44
38530;BME280;24301;54.332;48.386;2022-10-16T13:50:31;100456.28;;;8.98;50.38
38530;BME280;24301;54.332;48.386;2022-10-16T13:53:13;100455.25;;;8.88;50.94
38530;BME280;24301;54.332;48.386;2022-10-16T13:55:39;100457.66;;;8.74;51.25
38530;BME280;24301;54.332;48.386;2022-10-16T13:58:12;100457.44;;;8.61;51.67
38530;BME280;24301;54.332;48.386;2022-10-16T14:00:39;100465.16;;;8.52;51.60
38530;BME280;24301;54.332;48.386;2022-10-16T14:03:12;100467.59;;;8.44;52.27
38530;BME280;24301;54.332;48.386;2022-10-16T14:05:49;100477.94;;;8.37;52.76
38530;BME280;24301;54.332;48.386;2022-10-16T14:08:16;100466.44;;;8.30;52.90
38530;BME280;24301;54.332;48.386;2022-10-16T14:10:42;100462.84;;;8.23;52.88
38530;BME280;24301;54.332;48.386;2022-10-16T14:13:15;100462.66;;;8.14;53.29
38530;BME280;24301;54.332;48.386;2022-10-16T14:15:47;100458.19;;;8.07;53.83
38530;BME280;24301;54.332;48.386;2022-10-16T14:18:21;100458.94;;;8.01;53.91
38530;BME280;24301;54.332;48.386;2022-10-16T14:20:49;100471.13;;;7.99;53.50
38530;BME280;24301;54.332;48.386;2022-10-16T14:23:28;100473.72;;;7.97;54.17
38530;BME280;24301;54.332;48.386;2022-10-16T14:26:14;100472.75;;;7.94;54.44
38530;BME280;24301;54.332;48.386;2022-10-16T14:28:41;100473.47;;;7.85;54.83
38530;BME280;24301;54.332;48.386;2022-10-16T14:31:29;100477.78;;;7.83;55.13
38530;BME280;24301;54.332;48.386;2022-10-16T14:33:55;100481.16;;;7.77;54.94
38530;BME280;24301;54.332;48.386;2022-10-16T14:36:22;100482.78;;;7.72;55.33
38530;BME280;24301;54.332;48.386;2022-10-16T14:38:58;100485.38;;;7.70;55.75
38530;BME280;24301;54.332;48.386;2022-10-16T14:41:25;100484.38;;;7.64;55.51
38530;BME280;24301;54.332;48.386;2022-10-16T14:43:53;100483.41;;;7.60;55.28
38530;BME280;24301;54.332;48.386;2022-10-16T14:46:28;100479.81;;;7.55;55.38
38530;BME280;24301;54.332;48.386;2022-10-16T14:49:02;100483.16;;;7.47;55.11
38530;BME280;24301;54.332;48.386;2022-10-16T14:51:29;100487.50;;;7.47;55.54
38530;BME280;24301;54.332;48.386;2022-10-16T14:53:55;100490.00;;;7.42;54.83
38530;BME280;24301;54.332;48.386;2022-10-16T14:56:25;100490.84;;;7.40;54.41
38530;BME280;24301;54.332;48.386;2022-10-16T14:58:55;100484.66;;;7.36;54.34
38530;BME280;24301;54.332;48.386;2022-10-16T15:01:21;100482.81;;;7.32;54.39
38530;BME280;24301;54.332;48.386;2022-10-16T15:03:47;100485.44;;;7.32;54.35